Applegate, Michigan
Current Conditions -  °F | °C
As of 11:47 AM on Monday 24 Nov 2014 (Local Time) from CYZR Reporting Station
Light Rain Light Rain  
Wind Chill: 12°   Ceiling: 8000
Heat Index: 12°   Visibility: 9mi
Dew Point: 10°   Wind: 18mph
Humidity: 88%   Direction: 210°SSW
Pressure: 29.11"   Gusts: 29mph
Location:  43.36°N, 82.64°W
Report Text: CYZR 241647Z AUTO 21016G25KT 9SM -RA SCT012 OVC080 12/10 A2911 RMK SLP858 DENSITY ALT 1300FT
Loading
Personal Weather Stations






























Interactive Weather Map New forecast layout! Learn more

10-Day Weather Forecast

Advertisements
Track Severe Weather on mobile